createdAt,value
2023-02-28T00:00:47.565Z,81.27
2023-02-28T00:01:52.862Z,81.37
2023-02-28T00:02:58.126Z,81.37
2023-02-28T00:04:03.353Z,81.27
2023-02-28T00:05:08.677Z,81.48
2023-02-28T00:06:13.933Z,81.48
2023-02-28T00:07:19.221Z,81.58
2023-02-28T00:08:24.497Z,81.58
2023-02-28T00:09:29.762Z,81.83
2023-02-28T00:10:35.028Z,81.83
2023-02-28T00:11:40.274Z,81.93
2023-02-28T00:12:45.562Z,82.04
2023-02-28T00:13:50.820Z,81.93
2023-02-28T00:14:56.113Z,82.04
2023-02-28T00:16:01.373Z,82.04
2023-02-28T00:17:06.769Z,82.14
2023-02-28T00:18:12.037Z,82.14
2023-02-28T00:19:17.273Z,82.25
2023-02-28T00:20:22.543Z,82.35
2023-02-28T00:21:28.075Z,82.25
2023-02-28T00:22:33.413Z,82.25
2023-02-28T00:23:38.716Z,82.25
2023-02-28T00:24:43.983Z,82.25
2023-02-28T00:25:49.249Z,82.35
2023-02-28T00:26:54.535Z,82.46
2023-02-28T00:27:59.827Z,82.56
2023-02-28T00:29:05.105Z,82.67
2023-02-28T00:30:10.380Z,82.78
2023-02-28T00:31:15.735Z,82.78
2023-02-28T00:32:21.007Z,82.67
2023-02-28T00:33:26.270Z,82.78
2023-02-28T00:34:31.547Z,83.09
2023-02-28T00:35:36.878Z,82.98
2023-02-28T00:36:42.159Z,82.98
2023-02-28T00:37:47.425Z,83.09
2023-02-28T00:38:52.704Z,83.09
2023-02-28T00:39:58.025Z,83.09
2023-02-28T00:41:03.307Z,82.98
2023-02-28T00:42:08.614Z,82.98
2023-02-28T00:43:13.911Z,83.20
2023-02-28T00:44:19.205Z,83.30
2023-02-28T00:45:24.480Z,83.51
2023-02-28T00:46:29.837Z,83.51
2023-02-28T00:47:35.175Z,83.61
2023-02-28T00:48:40.637Z,83.61
2023-02-28T00:49:45.929Z,83.61
2023-02-28T00:50:51.171Z,83.61
2023-02-28T00:51:56.474Z,83.83
2023-02-28T00:53:01.774Z,83.93
2023-02-28T00:54:07.063Z,83.93
2023-02-28T00:55:12.364Z,83.93
2023-02-28T00:56:17.699Z,84.08
2023-02-28T00:57:23.008Z,83.97
2023-02-28T00:58:28.292Z,83.97
2023-02-28T00:59:33.596Z,83.93
2023-02-28T01:00:38.850Z,83.83
2023-02-28T01:01:44.262Z,83.51
2023-02-28T01:02:49.524Z,83.30
2023-02-28T01:03:54.839Z,83.51
2023-02-28T01:05:00.125Z,83.51
2023-02-28T01:06:05.386Z,83.30
2023-02-28T01:07:10.667Z,83.09
2023-02-28T01:08:15.960Z,82.98
2023-02-28T01:09:21.249Z,82.98
2023-02-28T01:10:26.549Z,83.20
2023-02-28T01:11:31.947Z,83.30
2023-02-28T01:12:37.294Z,83.44
2023-02-28T01:13:42.566Z,83.40
2023-02-28T01:14:47.869Z,83.40
2023-02-28T01:15:53.234Z,83.51
2023-02-28T01:16:58.612Z,83.54
2023-02-28T01:18:03.918Z,83.65
2023-02-28T01:19:09.218Z,83.76
2023-02-28T01:20:14.523Z,83.76
2023-02-28T01:21:19.865Z,83.65
2023-02-28T01:22:25.169Z,83.65
2023-02-28T01:23:30.498Z,83.65
2023-02-28T01:24:35.797Z,83.76
2023-02-28T01:25:41.169Z,83.97
2023-02-28T01:26:46.448Z,83.97
2023-02-28T01:27:51.750Z,83.97
2023-02-28T01:28:57.107Z,84.18
2023-02-28T01:30:02.422Z,84.28
2023-02-28T01:31:07.713Z,84.39
2023-02-28T01:32:13.204Z,84.60
2023-02-28T01:33:18.495Z,84.60
2023-02-28T01:34:23.819Z,84.81
2023-02-28T01:35:29.151Z,84.81
2023-02-28T01:36:34.470Z,84.91
2023-02-28T01:37:39.828Z,84.91
2023-02-28T01:38:45.140Z,85.02
2023-02-28T01:39:50.462Z,84.91
2023-02-28T01:40:55.805Z,85.02
2023-02-28T01:42:01.091Z,85.13
2023-02-28T01:43:06.432Z,85.23
2023-02-28T01:44:11.719Z,85.23
2023-02-28T01:45:17.093Z,85.44
2023-02-28T01:46:22.422Z,85.55
2023-02-28T01:47:27.722Z,85.55
2023-02-28T01:48:33.044Z,85.65
2023-02-28T01:49:38.387Z,85.86
2023-02-28T01:50:43.718Z,85.86
2023-02-28T01:51:49.037Z,85.75
2023-02-28T01:52:54.378Z,85.65
2023-02-28T01:53:59.705Z,85.65
2023-02-28T01:55:05.045Z,85.65
2023-02-28T01:56:10.376Z,85.75
2023-02-28T01:57:15.701Z,85.75
2023-02-28T01:58:21.016Z,85.86
2023-02-28T01:59:26.358Z,85.96
2023-02-28T02:00:31.693Z,86.18
2023-02-28T02:01:37.631Z,86.07
2023-02-28T08:04:39.789Z,85.17
2023-02-28T08:05:45.211Z,85.17
2023-02-28T08:06:50.624Z,85.24
2023-02-28T08:07:56.172Z,85.02
2023-02-28T08:09:01.637Z,84.81
2023-02-28T08:10:07.063Z,84.71
2023-02-28T08:11:12.446Z,84.81
2023-02-28T08:12:18.020Z,85.02
2023-02-28T08:13:23.362Z,84.71
2023-02-28T08:14:28.905Z,84.71
2023-02-28T08:15:34.370Z,84.50
2023-02-28T08:16:39.956Z,84.61
2023-02-28T08:17:45.583Z,84.71
2023-02-28T08:18:51.121Z,84.50
2023-02-28T08:19:56.658Z,84.19
2023-02-28T08:21:02.203Z,84.08
2023-02-28T08:22:07.772Z,84.08
2023-02-28T08:23:13.305Z,83.98
2023-02-28T08:24:18.855Z,83.98
2023-02-28T08:25:24.408Z,83.45
2023-02-28T08:26:29.966Z,83.42
2023-02-28T08:27:35.528Z,83.42
2023-02-28T08:28:41.080Z,83.73
2023-02-28T08:29:46.621Z,83.62
2023-02-28T08:30:52.149Z,83.42
2023-02-28T08:31:57.776Z,83.42
2023-02-28T08:33:03.397Z,83.31
2023-02-28T08:34:08.960Z,83.27
2023-02-28T08:35:14.473Z,82.68
2023-02-28T08:36:20.025Z,82.68
2023-02-28T08:37:25.523Z,82.75
2023-02-28T08:38:31.044Z,82.86
2023-02-28T08:39:36.521Z,82.33
2023-02-28T08:40:41.996Z,82.33
2023-02-28T08:41:51.141Z,82.12
2023-02-28T08:42:58.798Z,81.49
2023-02-28T08:44:04.255Z,81.39
2023-02-28T08:45:09.696Z,81.49
2023-02-28T08:46:15.236Z,81.39
2023-02-28T08:47:20.721Z,81.49
2023-02-28T08:48:26.170Z,81.29
2023-02-28T08:49:31.588Z,81.29
2023-02-28T08:50:37.011Z,81.70
2023-02-28T08:51:42.435Z,81.35
2023-02-28T08:52:47.859Z,81.35
2023-02-28T08:53:53.262Z,81.35
2023-02-28T08:54:58.716Z,81.25
2023-02-28T08:56:04.104Z,80.93
2023-02-28T08:57:09.497Z,81.04
2023-02-28T08:58:14.949Z,80.73
2023-02-28T08:59:20.330Z,80.31
2023-02-28T09:00:25.766Z,80.52
2023-02-28T09:01:31.608Z,80.52
2023-02-28T09:02:37.180Z,80.41
2023-02-28T09:03:42.611Z,80.52
2023-02-28T09:04:47.952Z,80.48
2023-02-28T09:05:53.303Z,80.27
2023-02-28T09:06:58.662Z,80.20
2023-02-28T09:08:04.047Z,80.27
2023-02-28T09:09:09.370Z,79.85
2023-02-28T09:10:14.768Z,79.89
2023-02-28T09:11:20.157Z,79.79
2023-02-28T09:12:25.518Z,79.68
2023-02-28T09:13:30.949Z,79.85
2023-02-28T09:14:36.286Z,79.75
2023-02-28T09:15:41.627Z,79.75
2023-02-28T09:16:46.976Z,79.54
2023-02-28T09:17:52.297Z,79.33
2023-02-28T09:18:57.660Z,79.44
2023-02-28T09:20:03.006Z,79.44
2023-02-28T09:21:08.289Z,79.22
2023-02-28T09:22:13.616Z,79.54
2023-02-28T09:23:18.942Z,79.75
2023-02-28T09:24:24.288Z,79.54
2023-02-28T09:25:29.618Z,79.75
2023-02-28T09:26:42.627Z,79.85
2023-02-28T09:27:46.267Z,79.85
2023-02-28T09:28:51.587Z,79.54
2023-02-28T09:29:56.986Z,79.33
2023-02-28T09:31:02.436Z,79.22
2023-02-28T09:32:07.877Z,79.12
2023-02-28T09:33:13.304Z,78.91
2023-02-28T09:34:18.825Z,78.81
2023-02-28T09:35:24.281Z,79.02
2023-02-28T09:36:43.314Z,79.12
2023-02-28T09:37:41.139Z,79.08
2023-02-28T09:38:48.117Z,79.08
2023-02-28T09:39:54.171Z,78.67
2023-02-28T09:40:59.613Z,78.04
2023-02-28T09:42:05.111Z,78.25
2023-02-28T09:43:10.591Z,78.04
2023-02-28T09:44:16.084Z,78.25
2023-02-28T09:45:21.553Z,78.11
2023-02-28T09:46:27.164Z,77.41
2023-02-28T09:47:32.680Z,77.73
2023-02-28T09:48:40.767Z,77.83
2023-02-28T09:49:46.660Z,77.62
2023-02-28T09:50:52.209Z,77.73
2023-02-28T09:51:57.781Z,77.51
2023-02-28T09:53:03.358Z,77.51
2023-02-28T09:54:08.923Z,77.51
2023-02-28T09:55:14.489Z,77.59
2023-02-28T09:56:20.054Z,77.59
2023-02-28T09:57:25.601Z,77.48
2023-02-28T09:58:31.127Z,77.27
2023-02-28T09:59:36.673Z,76.65
2023-02-28T10:00:42.235Z,76.65
2023-02-28T10:01:47.773Z,76.86
2023-02-28T10:02:53.261Z,77.06
2023-02-28T10:03:58.781Z,77.27
2023-02-28T10:05:04.385Z,76.86
2023-02-28T10:06:09.861Z,76.86
2023-02-28T10:07:15.357Z,76.65
2023-02-28T10:08:20.890Z,76.75
2023-02-28T10:09:26.400Z,76.96
2023-02-28T10:10:31.905Z,77.06
2023-02-28T10:11:37.408Z,76.86
2023-02-28T10:12:42.925Z,77.17
2023-02-28T10:13:48.440Z,76.96
2023-02-28T10:14:53.945Z,76.82
2023-02-28T10:15:59.485Z,76.40
2023-02-28T10:17:04.985Z,76.51
2023-02-28T10:18:11.606Z,76.51
2023-02-28T10:19:17.626Z,76.30
2023-02-28T10:20:23.115Z,76.12
2023-02-28T10:21:28.609Z,75.92
2023-02-28T10:22:34.106Z,76.09
2023-02-28T10:23:39.594Z,76.20
2023-02-28T10:24:45.075Z,76.16
2023-02-28T10:25:50.556Z,75.85
2023-02-28T10:26:56.022Z,75.53
2023-02-28T10:28:01.494Z,75.85
2023-02-28T10:29:06.929Z,75.53
2023-02-28T10:30:12.371Z,75.53
2023-02-28T10:31:17.850Z,75.40
2023-02-28T10:32:23.248Z,75.08
2023-02-28T10:33:28.744Z,74.74
2023-02-28T10:34:34.106Z,74.52
2023-02-28T10:35:39.475Z,74.01
2023-02-28T10:36:44.833Z,74.21
2023-02-28T10:37:50.182Z,74.42
2023-02-28T10:38:55.523Z,74.32
2023-02-28T10:40:00.900Z,73.90
2023-02-28T10:41:06.262Z,74.01
2023-02-28T10:42:11.690Z,73.97
2023-02-28T10:43:17.120Z,73.76
2023-02-28T10:44:22.542Z,73.24
2023-02-28T10:45:27.908Z,73.35
2023-02-28T10:46:33.559Z,72.89
2023-02-28T10:47:39.013Z,72.89
2023-02-28T10:48:44.516Z,72.62
2023-02-28T10:49:50.093Z,72.83
2023-02-28T10:50:55.611Z,72.83
2023-02-28T10:52:01.350Z,72.83
2023-02-28T10:53:06.905Z,73.32
2023-02-28T10:54:12.469Z,73.00
2023-02-28T10:55:18.013Z,72.89
2023-02-28T10:56:23.592Z,72.69
2023-02-28T10:57:29.136Z,72.79
2023-02-28T10:58:34.686Z,72.24
2023-02-28T10:59:40.220Z,71.82
2023-02-28T11:00:45.740Z,71.69
2023-02-28T11:01:51.364Z,71.58
2023-02-28T11:02:56.905Z,71.34
2023-02-28T11:04:02.381Z,71.00
2023-02-28T11:05:07.873Z,70.75
2023-02-28T11:06:13.316Z,69.92
2023-02-28T11:07:20.656Z,68.88
2023-02-28T11:08:27.508Z,68.99
2023-02-28T11:09:32.844Z,68.96
2023-02-28T11:10:38.297Z,68.96
2023-02-28T11:11:43.855Z,68.88
2023-02-28T11:12:52.885Z,69.27
2023-02-28T11:13:59.046Z,68.82
2023-02-28T11:15:04.521Z,69.03
2023-02-28T11:16:10.053Z,69.10
2023-02-28T11:17:15.468Z,68.34
2023-02-28T11:18:20.874Z,66.56
2023-02-28T11:19:26.238Z,65.48
2023-02-28T11:20:31.629Z,66.78
2023-02-28T11:21:36.953Z,67.35
2023-02-28T11:22:42.414Z,66.24
2023-02-28T11:23:47.869Z,65.62
2023-02-28T11:24:53.399Z,66.93
2023-02-28T11:25:58.938Z,67.96
2023-02-28T11:27:04.449Z,68.41
2023-02-28T11:28:09.935Z,68.51
2023-02-28T11:29:15.367Z,69.10
2023-02-28T11:30:20.790Z,67.17
2023-02-28T11:31:26.312Z,67.17
2023-02-28T11:32:31.892Z,65.84
2023-02-28T11:33:37.453Z,64.80
2023-02-28T11:34:42.935Z,65.53
2023-02-28T11:35:48.411Z,64.80
2023-02-28T11:36:53.809Z,65.62
2023-02-28T11:37:59.241Z,66.55
2023-02-28T11:39:04.687Z,65.87
2023-02-28T11:40:10.082Z,64.73
2023-02-28T11:41:15.473Z,65.83
2023-02-28T11:42:20.884Z,66.27
2023-02-28T11:43:26.295Z,67.37
2023-02-28T11:44:31.738Z,68.54
2023-02-28T11:45:37.200Z,67.48
2023-02-28T11:46:42.693Z,66.15
2023-02-28T11:47:48.114Z,64.09
2023-02-28T11:48:53.523Z,62.66
2023-02-28T11:49:58.860Z,61.87
2023-02-28T11:51:04.296Z,62.30
2023-02-28T11:52:09.805Z,63.29
2023-02-28T11:53:15.380Z,64.39
2023-02-28T11:54:20.879Z,65.38
2023-02-28T11:55:26.366Z,65.80
2023-02-28T11:56:31.790Z,64.67
2023-02-28T11:57:37.158Z,64.83
2023-02-28T11:58:42.483Z,64.52
2023-02-28T11:59:47.862Z,65.69
2023-02-28T12:00:53.203Z,66.47
2023-02-28T12:01:58.599Z,66.78
2023-02-28T12:03:04.123Z,66.72
2023-02-28T12:04:09.538Z,65.08
2023-02-28T12:05:14.951Z,63.68
2023-02-28T12:06:20.318Z,64.15
2023-02-28T12:07:25.659Z,63.06
2023-02-28T12:08:31.148Z,62.69
2023-02-28T12:09:36.668Z,61.99
2023-02-28T12:10:42.195Z,62.04
2023-02-28T12:11:47.728Z,61.99
2023-02-28T12:12:53.198Z,61.63
2023-02-28T12:13:58.648Z,60.75
2023-02-28T12:15:04.106Z,60.13
2023-02-28T12:16:09.563Z,59.92
2023-02-28T12:17:14.912Z,59.72
2023-02-28T12:18:20.460Z,59.61
2023-02-28T12:19:25.987Z,60.96
2023-02-28T12:20:31.514Z,62.54
2023-02-28T12:21:37.062Z,62.75
2023-02-28T12:22:42.615Z,62.30
2023-02-28T12:23:48.203Z,61.99
2023-02-28T12:24:53.719Z,62.34
2023-02-28T12:25:59.151Z,63.40
2023-02-28T12:27:04.507Z,63.13
2023-02-28T12:28:09.916Z,62.41
2023-02-28T12:29:15.252Z,61.76
2023-02-28T12:30:20.638Z,61.73
2023-02-28T12:31:26.143Z,61.08
2023-02-28T12:32:31.569Z,61.79
2023-02-28T12:33:36.955Z,62.70
2023-02-28T12:34:42.375Z,64.00
2023-02-28T12:35:47.872Z,65.45
2023-02-28T12:36:53.298Z,65.97
2023-02-28T12:37:58.765Z,64.81
2023-02-28T12:39:04.321Z,62.90
2023-02-28T12:40:09.806Z,61.63
2023-02-28T12:41:15.265Z,61.22
2023-02-28T12:42:20.682Z,61.01
2023-02-28T12:43:26.133Z,61.45
2023-02-28T12:44:31.597Z,61.76
2023-02-28T12:45:37.132Z,61.66
2023-02-28T12:46:42.653Z,61.45
2023-02-28T12:47:48.086Z,61.87
2023-02-28T12:48:53.537Z,61.19
2023-02-28T12:49:58.997Z,60.51
2023-02-28T12:51:04.377Z,59.20
2023-02-28T12:52:09.719Z,59.69
2023-02-28T12:53:15.119Z,59.38
2023-02-28T12:54:20.621Z,59.14
2023-02-28T12:55:26.253Z,58.94
2023-02-28T12:56:31.838Z,59.48
2023-02-28T12:57:37.320Z,59.53
2023-02-28T12:58:42.856Z,61.66
2023-02-28T12:59:48.414Z,61.82
2023-02-28T13:00:53.972Z,62.44
2023-02-28T13:01:59.390Z,63.26
2023-02-28T13:03:04.820Z,63.54
2023-02-28T13:04:10.162Z,62.55
2023-02-28T13:05:15.574Z,61.78
2023-02-28T13:06:20.949Z,60.93
2023-02-28T13:07:26.315Z,60.10
2023-02-28T13:08:31.690Z,59.53
2023-02-28T13:09:37.042Z,61.11
2023-02-28T13:10:42.400Z,61.19
2023-02-28T13:11:47.791Z,60.98
2023-02-28T13:12:53.127Z,61.11
2023-02-28T13:13:58.521Z,61.87
2023-02-28T13:15:03.861Z,63.16
2023-02-28T13:16:09.290Z,63.68
2023-02-28T13:17:14.775Z,63.85
2023-02-28T13:18:20.193Z,62.55
2023-02-28T13:19:25.613Z,61.78
2023-02-28T13:20:31.055Z,61.03
2023-02-28T13:21:36.495Z,59.89
2023-02-28T13:22:41.951Z,60.28
2023-02-28T13:23:47.369Z,59.63
2023-02-28T13:24:52.754Z,59.27
2023-02-28T13:25:58.087Z,58.01
2023-02-28T13:27:03.468Z,57.42
2023-02-28T13:28:08.979Z,57.42
2023-02-28T13:29:14.624Z,58.89
2023-02-28T13:30:20.134Z,58.54
2023-02-28T13:31:25.653Z,58.34
2023-02-28T13:32:31.152Z,57.52
2023-02-28T13:33:36.650Z,58.03
2023-02-28T13:34:42.073Z,57.65
2023-02-28T13:35:47.590Z,58.81
2023-02-28T13:36:53.125Z,58.94
2023-02-28T13:37:58.550Z,58.81
2023-02-28T13:39:03.967Z,58.16
2023-02-28T13:40:09.481Z,58.37
2023-02-28T13:41:14.921Z,58.58
2023-02-28T13:42:20.405Z,58.16
2023-02-28T13:43:35.657Z,57.80
2023-02-28T13:44:37.169Z,57.50
2023-02-28T13:45:42.600Z,57.13
2023-02-28T13:46:48.223Z,57.36
2023-02-28T13:47:53.611Z,56.77
2023-02-28T13:48:59.005Z,56.85
2023-02-28T13:50:04.396Z,57.36
2023-02-28T13:51:09.812Z,57.16
2023-02-28T13:52:15.163Z,57.59
2023-02-28T13:53:20.550Z,56.98
2023-02-28T13:54:25.932Z,57.70
2023-02-28T13:55:31.284Z,57.29
2023-02-28T13:56:36.634Z,56.41
2023-02-28T13:57:41.989Z,56.62
2023-02-28T13:58:47.411Z,57.50
2023-02-28T13:59:52.735Z,57.26
2023-02-28T14:00:58.220Z,57.57
2023-02-28T14:02:03.560Z,56.87
2023-02-28T14:03:09.031Z,57.36
2023-02-28T14:04:14.386Z,56.18
2023-02-28T14:05:19.793Z,55.69
2023-02-28T14:06:25.234Z,55.59
2023-02-28T14:07:34.376Z,56.23
2023-02-28T14:08:41.920Z,56.59
2023-02-28T14:09:47.357Z,58.06
2023-02-28T14:10:52.805Z,57.80
2023-02-28T14:11:58.348Z,57.18
2023-02-28T14:13:03.828Z,57.06
2023-02-28T14:14:09.332Z,56.21
2023-02-28T14:15:14.855Z,56.00
2023-02-28T14:16:20.394Z,55.49
2023-02-28T14:17:25.898Z,56.08
2023-02-28T14:18:31.410Z,55.64
2023-02-28T14:19:36.959Z,55.21
2023-02-28T14:20:42.535Z,55.13
2023-02-28T14:21:48.011Z,55.26
2023-02-28T14:22:53.522Z,55.87
2023-02-28T14:23:59.049Z,55.30
2023-02-28T14:25:04.521Z,54.36
2023-02-28T14:26:10.007Z,54.79
2023-02-28T14:27:15.473Z,55.36
2023-02-28T14:28:20.957Z,55.13
2023-02-28T14:29:26.448Z,55.64
2023-02-28T14:30:33.289Z,55.54
2023-02-28T14:31:39.760Z,55.90
2023-02-28T14:32:45.223Z,56.15
2023-02-28T14:33:50.764Z,57.01
2023-02-28T14:34:56.296Z,57.73
2023-02-28T14:36:01.876Z,57.13
2023-02-28T14:37:07.261Z,55.64
2023-02-28T14:38:12.718Z,55.08
2023-02-28T14:39:18.221Z,54.13
2023-02-28T14:40:23.713Z,53.82
2023-02-28T14:41:29.196Z,53.51
2023-02-28T14:42:34.759Z,52.75
2023-02-28T14:43:40.310Z,52.54
2023-02-28T14:44:45.836Z,53.31
2023-02-28T14:45:51.363Z,54.66
2023-02-28T14:46:56.983Z,55.62
2023-02-28T14:48:02.560Z,55.79
2023-02-28T14:49:08.105Z,55.90
2023-02-28T14:50:13.612Z,55.46
2023-02-28T14:51:19.190Z,54.90
2023-02-28T14:52:24.681Z,54.36
2023-02-28T14:53:30.135Z,54.41
2023-02-28T14:54:35.550Z,55.46
2023-02-28T14:55:41.029Z,55.38
2023-02-28T14:56:46.449Z,55.26
2023-02-28T14:57:51.890Z,54.08
2023-02-28T14:58:57.265Z,54.72
2023-02-28T15:00:02.594Z,54.82
2023-02-28T15:01:07.922Z,54.08
2023-02-28T15:02:13.237Z,53.97
2023-02-28T15:03:18.574Z,54.49
2023-02-28T15:04:23.961Z,53.87
2023-02-28T15:05:29.252Z,54.08
2023-02-28T15:06:34.609Z,54.21
2023-02-28T15:07:39.935Z,55.13
2023-02-28T15:08:45.269Z,54.85
2023-02-28T15:09:50.628Z,55.02
2023-02-28T15:10:56.000Z,54.92
2023-02-28T15:12:01.438Z,54.38
2023-02-28T15:13:06.812Z,55.02
2023-02-28T15:14:12.205Z,54.82
2023-02-28T15:15:17.649Z,54.72
2023-02-28T15:16:23.148Z,55.72
2023-02-28T15:17:28.672Z,57.31
2023-02-28T15:18:34.092Z,56.95
2023-02-28T15:19:39.608Z,56.82
2023-02-28T15:20:45.084Z,55.87
2023-02-28T15:21:50.565Z,55.66
2023-02-28T15:22:56.040Z,56.02
2023-02-28T15:24:01.544Z,56.77
2023-02-28T15:25:07.064Z,56.77
2023-02-28T15:26:12.609Z,56.87
2023-02-28T15:27:18.152Z,56.67
2023-02-28T15:28:23.745Z,56.77
2023-02-28T15:29:29.183Z,56.54
2023-02-28T15:30:34.636Z,56.57
2023-02-28T15:31:55.991Z,57.34
2023-02-28T15:32:51.418Z,58.40
2023-02-28T15:33:56.742Z,58.60
2023-02-28T15:35:02.124Z,58.06
2023-02-28T15:36:07.549Z,58.06
2023-02-28T15:37:12.981Z,57.70
2023-02-28T15:38:18.462Z,57.06
2023-02-28T15:39:23.863Z,56.34
2023-02-28T15:40:29.275Z,56.80
2023-02-28T15:41:34.709Z,57.18
2023-02-28T15:42:40.179Z,56.87
2023-02-28T15:43:45.632Z,57.75
2023-02-28T15:44:51.129Z,57.88
2023-02-28T15:45:56.638Z,58.19
2023-02-28T15:47:02.116Z,58.70
2023-02-28T15:48:14.183Z,58.81
2023-02-28T15:49:19.029Z,58.24
2023-02-28T15:50:24.529Z,57.73
2023-02-28T15:51:30.327Z,58.29
2023-02-28T15:52:35.982Z,58.84
2023-02-28T15:53:41.536Z,59.07
2023-02-28T15:54:47.109Z,59.58
2023-02-28T15:55:52.604Z,59.69
2023-02-28T15:56:58.054Z,59.89
2023-02-28T15:58:03.443Z,60.00
2023-02-28T15:59:08.781Z,60.23
2023-02-28T16:00:14.137Z,60.57
2023-02-28T16:01:19.547Z,60.80
2023-02-28T16:02:24.982Z,61.32
2023-02-28T16:03:30.413Z,61.08
2023-02-28T16:04:35.759Z,61.08
2023-02-28T16:05:41.131Z,61.40
2023-02-28T16:06:46.543Z,61.08
2023-02-28T16:07:51.944Z,61.19
2023-02-28T16:08:57.382Z,61.08
2023-02-28T16:10:02.827Z,61.50
2023-02-28T16:11:08.269Z,61.94
2023-02-28T16:12:13.732Z,62.59
2023-02-28T16:13:19.467Z,63.16
2023-02-28T16:14:24.963Z,64.36
2023-02-28T16:15:30.490Z,65.60
2023-02-28T16:16:36.109Z,65.94
2023-02-28T16:17:41.604Z,66.05
2023-02-28T16:18:47.073Z,66.38
2023-02-28T16:19:52.426Z,66.49
2023-02-28T16:20:57.763Z,66.38
2023-02-28T16:22:03.138Z,66.49
2023-02-28T16:23:08.552Z,66.93
2023-02-28T16:24:14.156Z,66.93
2023-02-28T16:25:19.567Z,66.93
2023-02-28T16:26:25.053Z,67.14
2023-02-28T16:27:30.491Z,67.14
2023-02-28T16:28:36.019Z,67.45
2023-02-28T16:29:41.529Z,67.97
2023-02-28T16:30:47.116Z,68.07
2023-02-28T16:31:52.646Z,68.07
2023-02-28T16:32:58.173Z,68.00
2023-02-28T16:34:03.775Z,68.21
2023-02-28T16:35:09.303Z,68.41
2023-02-28T16:36:14.884Z,68.52
2023-02-28T16:37:20.306Z,68.73
2023-02-28T16:38:25.777Z,68.41
2023-02-28T16:39:31.258Z,68.62
2023-02-28T16:40:36.670Z,68.55
2023-02-28T16:41:42.036Z,68.76
2023-02-28T16:42:47.440Z,69.07
2023-02-28T16:43:52.902Z,68.96
2023-02-28T16:44:58.390Z,68.96
2023-02-28T16:46:03.947Z,69.27
2023-02-28T16:47:09.665Z,69.42
2023-02-28T16:48:15.062Z,69.62
2023-02-28T16:49:20.395Z,69.83
2023-02-28T16:50:25.766Z,70.04
2023-02-28T16:51:33.497Z,70.14
2023-02-28T16:52:40.400Z,70.48
2023-02-28T16:53:45.786Z,70.90
2023-02-28T16:54:51.166Z,71.00
2023-02-28T16:55:56.561Z,70.90
2023-02-28T16:57:01.968Z,70.90
2023-02-28T16:58:07.407Z,70.79
2023-02-28T16:59:12.821Z,71.21
2023-02-28T17:00:18.286Z,71.21
2023-02-28T17:01:23.770Z,71.52
2023-02-28T17:02:29.351Z,71.86
2023-02-28T17:03:34.894Z,72.07
2023-02-28T17:04:40.344Z,71.97
2023-02-28T17:05:45.807Z,72.17
2023-02-28T17:06:51.324Z,72.38
2023-02-28T17:07:56.777Z,72.49
2023-02-28T17:09:02.284Z,72.63
2023-02-28T17:10:07.751Z,72.94
2023-02-28T17:11:13.251Z,72.94
2023-02-28T17:12:18.736Z,73.14
2023-02-28T17:13:24.336Z,73.25
2023-02-28T17:14:29.837Z,73.35
2023-02-28T17:15:35.461Z,73.60
2023-02-28T17:16:41.111Z,73.49
2023-02-28T17:17:46.610Z,73.39
2023-02-28T17:18:52.176Z,73.49
2023-02-28T17:19:57.693Z,73.70
2023-02-28T17:21:03.238Z,73.70
2023-02-28T17:22:08.772Z,73.70
2023-02-28T17:23:14.377Z,73.49
2023-02-28T17:24:30.358Z,73.60
2023-02-28T17:25:31.410Z,73.80
2023-02-28T17:26:36.943Z,73.70
2023-02-28T17:27:42.490Z,73.70
2023-02-28T17:28:48.008Z,73.73
2023-02-28T17:29:53.484Z,73.63
2023-02-28T17:30:59.030Z,73.73
2023-02-28T17:32:17.028Z,73.63
2023-02-28T17:33:15.832Z,73.83
2023-02-28T17:34:21.312Z,73.94
2023-02-28T17:35:26.817Z,74.04
2023-02-28T17:36:32.697Z,74.15
2023-02-28T17:37:38.423Z,74.04
2023-02-28T17:38:43.953Z,74.25
2023-02-28T17:39:49.502Z,74.25
2023-02-28T17:40:54.969Z,74.35
2023-02-28T17:42:00.421Z,74.46
2023-02-28T17:43:05.915Z,74.25
2023-02-28T17:44:11.231Z,74.15
2023-02-28T17:45:16.578Z,74.25
2023-02-28T17:46:22.026Z,74.25
2023-02-28T17:47:27.390Z,74.46
2023-02-28T17:48:32.881Z,74.49
2023-02-28T17:49:38.198Z,74.70
2023-02-28T17:50:43.507Z,74.80
2023-02-28T17:51:48.849Z,74.80
2023-02-28T17:52:54.185Z,74.91
2023-02-28T17:53:59.523Z,75.12
2023-02-28T17:55:04.850Z,75.12
2023-02-28T17:56:10.221Z,75.12
2023-02-28T17:57:15.555Z,75.01
2023-02-28T17:58:20.912Z,75.12
2023-02-28T17:59:26.235Z,75.22
2023-02-28T18:00:31.574Z,75.22
2023-02-28T18:01:36.999Z,75.36
2023-02-28T18:02:42.401Z,75.46
2023-02-28T18:03:47.814Z,75.46
2023-02-28T18:04:53.163Z,75.46
2023-02-28T18:05:58.576Z,75.57
2023-02-28T18:07:03.989Z,75.46
2023-02-28T18:08:09.487Z,75.46
2023-02-28T18:09:14.876Z,75.78
2023-02-28T18:10:20.373Z,75.78
2023-02-28T18:11:25.878Z,75.88
2023-02-28T18:12:31.578Z,76.12
2023-02-28T18:13:36.949Z,76.23
2023-02-28T18:14:42.355Z,76.33
2023-02-28T18:15:47.773Z,76.43
2023-02-28T18:16:53.189Z,76.65
2023-02-28T18:17:58.601Z,76.65
2023-02-28T18:19:04.005Z,76.75
2023-02-28T18:20:09.404Z,76.75
2023-02-28T18:21:14.792Z,76.75
2023-02-28T18:22:20.198Z,76.54
2023-02-28T18:23:25.693Z,76.54
2023-02-28T18:24:31.089Z,76.43
2023-02-28T18:25:36.528Z,76.54
2023-02-28T18:26:41.928Z,76.43
2023-02-28T18:27:47.342Z,76.54
2023-02-28T18:28:53.061Z,76.75
2023-02-28T18:29:58.464Z,76.86
2023-02-28T18:31:03.925Z,76.89
2023-02-28T18:32:09.374Z,76.86
2023-02-28T18:33:14.793Z,77.10
2023-02-28T18:34:20.235Z,76.89
2023-02-28T18:35:25.677Z,76.99
2023-02-28T18:36:31.359Z,76.99
2023-02-28T18:37:36.951Z,77.10
2023-02-28T18:38:42.392Z,77.31
2023-02-28T18:39:47.811Z,77.31
2023-02-28T18:40:53.244Z,77.41
2023-02-28T18:41:58.693Z,77.41
2023-02-28T18:43:04.135Z,77.31
2023-02-28T18:44:18.954Z,77.41
2023-02-28T18:45:20.921Z,77.41
2023-02-28T18:46:26.413Z,77.41
2023-02-28T18:47:31.850Z,77.51
2023-02-28T18:48:37.331Z,77.51
2023-02-28T18:49:42.774Z,77.62
2023-02-28T18:50:48.221Z,77.62
2023-02-28T18:51:53.719Z,77.72
2023-02-28T18:52:59.191Z,77.86
2023-02-28T18:54:04.642Z,77.97
2023-02-28T18:55:10.106Z,77.97
2023-02-28T18:56:15.589Z,78.07
2023-02-28T18:57:21.030Z,78.07
2023-02-28T18:58:26.514Z,78.07
2023-02-28T18:59:31.983Z,78.17
2023-02-28T19:00:37.512Z,78.07
2023-02-28T19:01:42.995Z,78.17
2023-02-28T19:02:48.432Z,77.86
2023-02-28T19:03:54.019Z,77.97
2023-02-28T19:04:59.477Z,77.97
2023-02-28T19:06:04.940Z,78.07
2023-02-28T19:07:10.431Z,78.07
2023-02-28T19:08:15.916Z,77.97
2023-02-28T19:09:21.401Z,78.17
2023-02-28T19:10:26.870Z,78.38
2023-02-28T19:11:32.339Z,78.49
2023-02-28T19:12:37.833Z,78.59
2023-02-28T19:13:43.325Z,78.73
2023-02-28T19:14:48.813Z,78.73
2023-02-28T19:15:57.246Z,78.73
2023-02-28T19:17:03.156Z,78.83
2023-02-28T19:18:08.702Z,78.83
2023-02-28T19:19:14.202Z,79.05
2023-02-28T19:20:19.773Z,79.05
2023-02-28T19:21:25.293Z,79.05
2023-02-28T19:22:30.797Z,79.15
2023-02-28T19:23:36.329Z,79.15
2023-02-28T19:24:41.856Z,79.15
2023-02-28T19:25:47.353Z,79.25
2023-02-28T19:26:52.860Z,79.46
2023-02-28T19:27:58.432Z,79.67
2023-02-28T19:29:03.949Z,79.57
2023-02-28T19:30:09.445Z,79.46
2023-02-28T19:31:15.067Z,79.46
2023-02-28T19:32:20.674Z,79.46
2023-02-28T19:55:23.467Z,78.73
2023-02-28T19:56:29.014Z,78.73
2023-02-28T19:57:35.526Z,78.63
2023-02-28T19:58:40.971Z,78.52
2023-02-28T19:59:46.326Z,78.63
2023-02-28T20:00:51.692Z,78.63
2023-02-28T20:01:56.984Z,78.63
2023-02-28T20:03:02.220Z,78.73
2023-02-28T20:04:07.519Z,78.73
2023-02-28T20:05:12.784Z,78.94
2023-02-28T20:06:18.996Z,78.83
2023-02-28T20:07:24.351Z,78.83
2023-02-28T20:08:29.709Z,78.83
2023-02-28T20:09:35.113Z,78.73
2023-02-28T20:10:40.477Z,78.73
2023-02-28T20:11:45.923Z,78.83
2023-02-28T20:12:51.419Z,79.05
2023-02-28T20:13:57.022Z,79.15
2023-02-28T20:15:02.451Z,79.57
2023-02-28T20:16:07.889Z,79.36
2023-02-28T20:17:13.411Z,79.71
2023-02-28T20:18:18.836Z,79.91
2023-02-28T20:19:24.285Z,79.81
2023-02-28T20:20:29.806Z,79.81
2023-02-28T20:21:35.220Z,79.91
2023-02-28T20:22:40.862Z,80.02
2023-02-28T20:23:46.335Z,79.81
2023-02-28T20:24:51.799Z,79.91
2023-02-28T20:25:57.280Z,80.02
2023-02-28T20:27:02.782Z,80.02
2023-02-28T20:28:08.246Z,80.23